FIN4B EFHK-EFOU
Flight info
| Callsign | FIN4B |
|---|---|
| Flight time | 0h 48m |
| Altitude | 34000 |
| Route | TEVRU Y75 SUVIB |
| Aircraft | A321/M-SDE3FGHIRWY/LB1 |
Departure
| Time | 2026-05-05 18:38 |
|---|---|
| Airport | Helsinki Vantaa Airport (EFHK) |
Arrival
| Time | 2026-05-05 19:26 |
|---|---|
| Airport | Oulu Airport (EFOU) |
| Time | Latitude | Longitude | Altitude | Speed | Heading |
|---|---|---|---|---|---|
| 2026-05-05 18:05 | 60.31913 | 24.96610 | 189 ft | 0 kts | 137° |
| 2026-05-05 18:26 | 60.31914 | 24.96607 | 189 ft | 1 kts | 137° |
| 2026-05-05 18:27 | 60.31924 | 24.96588 | 189 ft | 2 kts | 137° |
| 2026-05-05 18:27 | 60.31936 | 24.96567 | 189 ft | 2 kts | 138° |
| 2026-05-05 18:27 | 60.31948 | 24.96555 | 189 ft | 2 kts | 174° |
| 2026-05-05 18:27 | 60.31962 | 24.96557 | 189 ft | 2 kts | 200° |
| 2026-05-05 18:28 | 60.31978 | 24.96582 | 189 ft | 0 kts | 228° |
| 2026-05-05 18:30 | 60.31958 | 24.96538 | 189 ft | 7 kts | 227° |
| 2026-05-05 18:30 | 60.31921 | 24.96458 | 189 ft | 8 kts | 227° |
| 2026-05-05 18:30 | 60.31881 | 24.96369 | 189 ft | 9 kts | 229° |
| 2026-05-05 18:31 | 60.31855 | 24.96251 | 189 ft | 9 kts | 266° |
| 2026-05-05 18:31 | 60.31878 | 24.96122 | 189 ft | 10 kts | 315° |
| 2026-05-05 18:31 | 60.31933 | 24.96020 | 189 ft | 11 kts | 318° |
| 2026-05-05 18:31 | 60.31981 | 24.95932 | 189 ft | 4 kts | 317° |
| 2026-05-05 18:32 | 60.31998 | 24.95900 | 189 ft | 2 kts | 317° |
| 2026-05-05 18:32 | 60.32005 | 24.95888 | 189 ft | 0 kts | 317° |
| 2026-05-05 18:32 | 60.32041 | 24.95820 | 189 ft | 11 kts | 316° |
| 2026-05-05 18:32 | 60.32099 | 24.95709 | 189 ft | 11 kts | 317° |
| 2026-05-05 18:33 | 60.32162 | 24.95594 | 189 ft | 12 kts | 319° |
| 2026-05-05 18:33 | 60.32229 | 24.95477 | 189 ft | 12 kts | 319° |
| 2026-05-05 18:33 | 60.32296 | 24.95354 | 189 ft | 13 kts | 317° |
| 2026-05-05 18:33 | 60.32376 | 24.95257 | 189 ft | 13 kts | 339° |
| 2026-05-05 18:34 | 60.32466 | 24.95194 | 189 ft | 13 kts | 341° |
| 2026-05-05 18:34 | 60.32558 | 24.95129 | 189 ft | 14 kts | 341° |
| 2026-05-05 18:34 | 60.32653 | 24.95069 | 189 ft | 14 kts | 343° |
| 2026-05-05 18:34 | 60.32749 | 24.95010 | 189 ft | 14 kts | 343° |
| 2026-05-05 18:35 | 60.32847 | 24.94947 | 189 ft | 14 kts | 342° |
| 2026-05-05 18:35 | 60.32933 | 24.94843 | 189 ft | 13 kts | 314° |
| 2026-05-05 18:35 | 60.33002 | 24.94715 | 189 ft | 13 kts | 317° |
| 2026-05-05 18:35 | 60.33071 | 24.94583 | 189 ft | 14 kts | 316° |
| 2026-05-05 18:36 | 60.33119 | 24.94481 | 189 ft | 6 kts | 294° |
| 2026-05-05 18:36 | 60.33115 | 24.94394 | 189 ft | 3 kts | 243° |
| 2026-05-05 18:36 | 60.33110 | 24.94381 | 189 ft | 0 kts | 227° |
| 2026-05-05 18:37 | 60.33100 | 24.94360 | 189 ft | 13 kts | 227° |
| 2026-05-05 18:37 | 60.32875 | 24.93864 | 189 ft | 82 kts | 227° |
| 2026-05-05 18:37 | 60.32350 | 24.92711 | 189 ft | 140 kts | 227° |
| 2026-05-05 18:37 | 60.31608 | 24.91093 | 496 ft | 162 kts | 228° |
| 2026-05-05 18:38 | 60.30833 | 24.89457 | 1116 ft | 163 kts | 232° |
| 2026-05-05 18:38 | 60.30208 | 24.87621 | 1733 ft | 160 kts | 250° |
| 2026-05-05 18:38 | 60.30042 | 24.85467 | 2144 ft | 158 kts | 284° |
| 2026-05-05 18:38 | 60.30423 | 24.83357 | 2389 ft | 168 kts | 295° |
| 2026-05-05 18:39 | 60.30943 | 24.81110 | 2613 ft | 184 kts | 296° |
| 2026-05-05 18:39 | 60.31495 | 24.78707 | 2910 ft | 198 kts | 296° |
| 2026-05-05 18:39 | 60.32150 | 24.76115 | 3233 ft | 214 kts | 300° |
| 2026-05-05 18:39 | 60.32899 | 24.73436 | 3555 ft | 230 kts | 301° |
| 2026-05-05 18:40 | 60.33711 | 24.70540 | 3938 ft | 245 kts | 301° |
| 2026-05-05 18:40 | 60.34546 | 24.67535 | 4583 ft | 249 kts | 300° |
| 2026-05-05 18:40 | 60.35490 | 24.64613 | 5264 ft | 252 kts | 315° |
| 2026-05-05 18:40 | 60.36958 | 24.62765 | 5926 ft | 256 kts | 341° |
| 2026-05-05 18:41 | 60.38738 | 24.62446 | 6610 ft | 263 kts | 6° |
| 2026-05-05 18:41 | 60.40537 | 24.63238 | 7314 ft | 268 kts | 11° |
| 2026-05-05 18:41 | 60.42341 | 24.64086 | 8008 ft | 272 kts | 10° |
| 2026-05-05 18:41 | 60.44192 | 24.64947 | 8706 ft | 276 kts | 9° |
| 2026-05-05 18:42 | 60.46053 | 24.65808 | 9374 ft | 279 kts | 9° |
| 2026-05-05 18:42 | 60.47957 | 24.66685 | 10017 ft | 283 kts | 9° |
| 2026-05-05 18:42 | 60.49875 | 24.67565 | 10551 ft | 292 kts | 8° |
| 2026-05-05 18:42 | 60.51908 | 24.68490 | 10858 ft | 307 kts | 8° |
| 2026-05-05 18:43 | 60.54050 | 24.69465 | 11136 ft | 323 kts | 8° |
| 2026-05-05 18:43 | 60.56255 | 24.70477 | 11491 ft | 335 kts | 8° |
| 2026-05-05 18:43 | 60.58541 | 24.71531 | 12056 ft | 340 kts | 8° |
| 2026-05-05 18:43 | 60.60864 | 24.72609 | 12606 ft | 346 kts | 7° |
| 2026-05-05 18:44 | 60.63221 | 24.73701 | 13118 ft | 351 kts | 7° |
| 2026-05-05 18:44 | 60.65612 | 24.74805 | 13646 ft | 356 kts | 7° |
| 2026-05-05 18:44 | 60.68023 | 24.75919 | 14174 ft | 361 kts | 7° |
| 2026-05-05 18:44 | 60.70475 | 24.77055 | 14678 ft | 366 kts | 6° |
| 2026-05-05 18:45 | 60.72967 | 24.78211 | 15173 ft | 371 kts | 6° |
| 2026-05-05 18:45 | 60.75485 | 24.79390 | 15769 ft | 372 kts | 5° |
| 2026-05-05 18:45 | 60.77984 | 24.80559 | 16269 ft | 375 kts | 4° |
| 2026-05-05 18:45 | 60.80530 | 24.81738 | 16704 ft | 380 kts | 3° |
| 2026-05-05 18:46 | 60.83136 | 24.82712 | 17136 ft | 381 kts | 358° |
| 2026-05-05 18:46 | 60.85753 | 24.83403 | 17594 ft | 383 kts | 356° |
| 2026-05-05 18:46 | 60.88394 | 24.84019 | 18013 ft | 387 kts | 355° |
| 2026-05-05 18:46 | 60.91073 | 24.84630 | 18431 ft | 391 kts | 355° |
| 2026-05-05 18:47 | 60.93771 | 24.85250 | 18849 ft | 395 kts | 354° |
| 2026-05-05 18:47 | 60.96503 | 24.85876 | 19291 ft | 399 kts | 355° |
| 2026-05-05 18:47 | 60.99289 | 24.86527 | 19736 ft | 403 kts | 354° |
| 2026-05-05 18:47 | 61.02074 | 24.87183 | 20192 ft | 406 kts | 355° |
| 2026-05-05 18:48 | 61.04874 | 24.87850 | 20667 ft | 409 kts | 355° |
| 2026-05-05 18:48 | 61.07664 | 24.88512 | 21113 ft | 412 kts | 355° |
| 2026-05-05 18:48 | 61.10527 | 24.89195 | 21524 ft | 415 kts | 355° |
| 2026-05-05 18:48 | 61.13387 | 24.89885 | 21936 ft | 418 kts | 355° |
| 2026-05-05 18:49 | 61.16289 | 24.90585 | 22331 ft | 420 kts | 355° |
| 2026-05-05 18:49 | 61.19182 | 24.91283 | 22733 ft | 423 kts | 355° |
| 2026-05-05 18:49 | 61.22113 | 24.91989 | 23092 ft | 426 kts | 355° |
| 2026-05-05 18:49 | 61.25015 | 24.92689 | 23468 ft | 428 kts | 355° |
| 2026-05-05 18:50 | 61.27995 | 24.93408 | 23792 ft | 432 kts | 355° |
| 2026-05-05 18:50 | 61.30995 | 24.94133 | 24145 ft | 435 kts | 355° |
| 2026-05-05 18:50 | 61.33968 | 24.94856 | 24498 ft | 437 kts | 355° |
| 2026-05-05 18:50 | 61.37009 | 24.95594 | 24841 ft | 439 kts | 355° |
| 2026-05-05 18:51 | 61.40034 | 24.96332 | 25209 ft | 441 kts | 355° |
| 2026-05-05 18:51 | 61.43076 | 24.97077 | 25531 ft | 444 kts | 355° |
| 2026-05-05 18:51 | 61.46110 | 24.97818 | 25839 ft | 447 kts | 355° |
| 2026-05-05 18:51 | 61.49201 | 24.98578 | 26159 ft | 449 kts | 355° |
| 2026-05-05 18:52 | 61.52293 | 24.99338 | 26496 ft | 451 kts | 355° |
| 2026-05-05 18:52 | 61.55426 | 25.00107 | 26788 ft | 454 kts | 355° |
| 2026-05-05 18:52 | 61.58539 | 25.00876 | 27117 ft | 455 kts | 355° |
| 2026-05-05 18:52 | 61.61671 | 25.01492 | 27405 ft | 453 kts | 352° |
| 2026-05-05 18:53 | 61.64796 | 25.01765 | 27685 ft | 451 kts | 349° |
| 2026-05-05 18:53 | 61.67952 | 25.01882 | 27937 ft | 453 kts | 349° |
| 2026-05-05 18:53 | 61.71106 | 25.01965 | 28261 ft | 454 kts | 349° |
| 2026-05-05 18:53 | 61.74238 | 25.02054 | 28512 ft | 457 kts | 349° |
| 2026-05-05 18:54 | 61.77424 | 25.02157 | 28779 ft | 459 kts | 349° |
| 2026-05-05 18:54 | 61.80637 | 25.02273 | 29065 ft | 461 kts | 349° |
| 2026-05-05 18:54 | 61.83811 | 25.02393 | 29315 ft | 463 kts | 349° |
| 2026-05-05 18:54 | 61.87015 | 25.02513 | 29560 ft | 465 kts | 349° |
| 2026-05-05 18:55 | 61.90270 | 25.02638 | 29785 ft | 467 kts | 349° |
| 2026-05-05 18:55 | 61.93518 | 25.02759 | 29960 ft | 471 kts | 349° |
| 2026-05-05 18:55 | 61.96766 | 25.02885 | 30235 ft | 472 kts | 349° |
| 2026-05-05 18:55 | 62.00043 | 25.03013 | 30496 ft | 473 kts | 349° |
| 2026-05-05 18:56 | 62.03326 | 25.03139 | 30667 ft | 475 kts | 349° |
| 2026-05-05 18:56 | 62.06646 | 25.03267 | 30860 ft | 475 kts | 350° |
| 2026-05-05 18:56 | 62.09915 | 25.03388 | 31031 ft | 476 kts | 350° |
| 2026-05-05 18:56 | 62.13221 | 25.03514 | 31234 ft | 475 kts | 351° |
| 2026-05-05 18:57 | 62.16508 | 25.03647 | 31509 ft | 473 kts | 351° |
| 2026-05-05 18:57 | 62.19771 | 25.03773 | 31729 ft | 471 kts | 351° |
| 2026-05-05 18:57 | 62.23008 | 25.03898 | 31988 ft | 470 kts | 351° |
| 2026-05-05 18:57 | 62.26290 | 25.04024 | 32209 ft | 469 kts | 351° |
| 2026-05-05 18:58 | 62.29524 | 25.04146 | 32407 ft | 469 kts | 352° |
| 2026-05-05 18:58 | 62.32790 | 25.04269 | 32603 ft | 468 kts | 352° |
| 2026-05-05 18:58 | 62.36015 | 25.04392 | 32803 ft | 467 kts | 352° |
| 2026-05-05 18:58 | 62.39237 | 25.04519 | 33019 ft | 466 kts | 352° |
| 2026-05-05 18:59 | 62.42459 | 25.04643 | 33226 ft | 465 kts | 353° |
| 2026-05-05 18:59 | 62.45694 | 25.04770 | 33417 ft | 465 kts | 353° |
| 2026-05-05 18:59 | 62.48892 | 25.04895 | 33578 ft | 465 kts | 353° |
| 2026-05-05 18:59 | 62.52131 | 25.05021 | 33757 ft | 465 kts | 353° |
| 2026-05-05 19:00 | 62.55343 | 25.05151 | 33966 ft | 465 kts | 353° |
| 2026-05-05 19:00 | 62.58550 | 25.05279 | 34142 ft | 464 kts | 353° |
| 2026-05-05 19:00 | 62.61789 | 25.05405 | 34303 ft | 464 kts | 353° |
| 2026-05-05 19:00 | 62.64981 | 25.05531 | 34438 ft | 465 kts | 354° |
| 2026-05-05 19:01 | 62.68203 | 25.05655 | 34577 ft | 466 kts | 354° |
| 2026-05-05 19:01 | 62.71454 | 25.05778 | 34665 ft | 468 kts | 354° |
| 2026-05-05 19:01 | 62.74691 | 25.05898 | 34820 ft | 468 kts | 354° |
| 2026-05-05 19:01 | 62.77927 | 25.06024 | 34961 ft | 469 kts | 354° |
| 2026-05-05 19:02 | 62.81160 | 25.06150 | 35116 ft | 469 kts | 354° |
| 2026-05-05 19:02 | 62.84391 | 25.06283 | 35295 ft | 468 kts | 354° |
| 2026-05-05 19:02 | 62.87653 | 25.06414 | 35421 ft | 469 kts | 354° |
| 2026-05-05 19:02 | 62.90880 | 25.06543 | 35534 ft | 470 kts | 355° |
| 2026-05-05 19:03 | 62.97400 | 25.06804 | 35733 ft | 471 kts | 355° |
| 2026-05-05 19:03 | 63.00673 | 25.06934 | 35847 ft | 472 kts | 355° |
| 2026-05-05 19:03 | 63.03951 | 25.07070 | 35863 ft | 473 kts | 355° |
| 2026-05-05 19:04 | 63.10467 | 25.07337 | 35869 ft | 472 kts | 355° |
| 2026-05-05 19:04 | 63.17038 | 25.07606 | 35874 ft | 473 kts | 355° |
| 2026-05-05 19:05 | 63.20268 | 25.07738 | 35751 ft | 471 kts | 355° |
| 2026-05-05 19:05 | 63.23554 | 25.07875 | 35186 ft | 475 kts | 355° |
| 2026-05-05 19:05 | 63.26846 | 25.08008 | 34394 ft | 481 kts | 355° |
| 2026-05-05 19:05 | 63.30175 | 25.08140 | 33599 ft | 486 kts | 355° |
| 2026-05-05 19:06 | 63.33548 | 25.08276 | 32927 ft | 488 kts | 355° |
| 2026-05-05 19:06 | 63.36906 | 25.08419 | 32343 ft | 488 kts | 354° |
| 2026-05-05 19:06 | 63.40285 | 25.08563 | 31754 ft | 488 kts | 354° |
| 2026-05-05 19:06 | 63.43646 | 25.08708 | 31153 ft | 488 kts | 354° |
| 2026-05-05 19:07 | 63.47046 | 25.08850 | 30524 ft | 489 kts | 353° |
| 2026-05-05 19:07 | 63.50383 | 25.08986 | 30057 ft | 484 kts | 353° |
| 2026-05-05 19:07 | 63.53744 | 25.09121 | 29649 ft | 478 kts | 354° |
| 2026-05-05 19:07 | 63.57033 | 25.09251 | 29257 ft | 474 kts | 354° |
| 2026-05-05 19:08 | 63.60307 | 25.09385 | 28838 ft | 470 kts | 354° |
| 2026-05-05 19:08 | 63.63539 | 25.09512 | 28423 ft | 465 kts | 354° |
| 2026-05-05 19:08 | 63.66714 | 25.09636 | 28048 ft | 460 kts | 355° |
| 2026-05-05 19:08 | 63.69872 | 25.09769 | 27654 ft | 455 kts | 355° |
| 2026-05-05 19:09 | 63.73017 | 25.09903 | 27257 ft | 450 kts | 355° |
| 2026-05-05 19:09 | 63.76124 | 25.10032 | 26853 ft | 446 kts | 355° |
| 2026-05-05 19:09 | 63.79170 | 25.10160 | 26450 ft | 441 kts | 356° |
| 2026-05-05 19:09 | 63.82199 | 25.10284 | 26051 ft | 437 kts | 356° |
| 2026-05-05 19:10 | 63.85209 | 25.10407 | 25650 ft | 432 kts | 356° |
| 2026-05-05 19:10 | 63.88167 | 25.10531 | 25245 ft | 428 kts | 356° |
| 2026-05-05 19:10 | 63.91135 | 25.10656 | 24848 ft | 423 kts | 357° |
| 2026-05-05 19:10 | 63.94047 | 25.10771 | 24416 ft | 418 kts | 358° |
| 2026-05-05 19:11 | 63.96902 | 25.10891 | 23941 ft | 414 kts | 358° |
| 2026-05-05 19:11 | 63.99784 | 25.11013 | 23464 ft | 410 kts | 358° |
| 2026-05-05 19:11 | 64.02589 | 25.11130 | 22970 ft | 406 kts | 359° |
| 2026-05-05 19:11 | 64.05376 | 25.11248 | 22471 ft | 401 kts | 359° |
| 2026-05-05 19:12 | 64.08144 | 25.11369 | 21977 ft | 397 kts | 359° |
| 2026-05-05 19:12 | 64.10882 | 25.11489 | 21480 ft | 394 kts | 359° |
| 2026-05-05 19:12 | 64.13573 | 25.11605 | 21014 ft | 390 kts | 359° |
| 2026-05-05 19:12 | 64.16278 | 25.11720 | 20551 ft | 385 kts | 360° |
| 2026-05-05 19:13 | 64.18904 | 25.11832 | 19933 ft | 375 kts | 0° |
| 2026-05-05 19:13 | 64.21481 | 25.11942 | 18953 ft | 371 kts | 0° |
| 2026-05-05 19:13 | 64.24006 | 25.12057 | 17991 ft | 365 kts | 360° |
| 2026-05-05 19:13 | 64.26518 | 25.12175 | 17030 ft | 359 kts | 359° |
| 2026-05-05 19:14 | 64.28975 | 25.12288 | 16070 ft | 353 kts | 359° |
| 2026-05-05 19:14 | 64.31395 | 25.12394 | 15206 ft | 351 kts | 359° |
| 2026-05-05 19:14 | 64.33807 | 25.12496 | 14547 ft | 346 kts | 359° |
| 2026-05-05 19:14 | 64.36167 | 25.12596 | 13897 ft | 341 kts | 359° |
| 2026-05-05 19:15 | 64.38525 | 25.12700 | 13203 ft | 337 kts | 358° |
| 2026-05-05 19:15 | 64.40848 | 25.12804 | 12517 ft | 334 kts | 358° |
| 2026-05-05 19:15 | 64.43108 | 25.13524 | 11807 ft | 337 kts | 12° |
| 2026-05-05 19:15 | 64.45253 | 25.15714 | 11214 ft | 336 kts | 25° |
| 2026-05-05 19:16 | 64.47216 | 25.18453 | 10713 ft | 330 kts | 27° |
| 2026-05-05 19:16 | 64.49149 | 25.21248 | 10228 ft | 323 kts | 27° |
| 2026-05-05 19:16 | 64.51018 | 25.23951 | 9743 ft | 317 kts | 27° |
| 2026-05-05 19:16 | 64.52872 | 25.26622 | 9260 ft | 312 kts | 27° |
| 2026-05-05 19:17 | 64.54685 | 25.29228 | 8787 ft | 306 kts | 26° |
| 2026-05-05 19:17 | 64.56477 | 25.31801 | 8404 ft | 302 kts | 26° |
| 2026-05-05 19:17 | 64.58253 | 25.34350 | 8102 ft | 298 kts | 26° |
| 2026-05-05 19:17 | 64.59982 | 25.36834 | 7831 ft | 293 kts | 26° |
| 2026-05-05 19:18 | 64.61719 | 25.39329 | 7565 ft | 289 kts | 26° |
| 2026-05-05 19:18 | 64.63394 | 25.41741 | 7297 ft | 285 kts | 26° |
| 2026-05-05 19:18 | 64.65060 | 25.44142 | 7039 ft | 281 kts | 26° |
| 2026-05-05 19:18 | 64.66722 | 25.46542 | 6752 ft | 278 kts | 26° |
| 2026-05-05 19:19 | 64.68350 | 25.48892 | 6428 ft | 277 kts | 26° |
| 2026-05-05 19:19 | 64.69981 | 25.51251 | 6108 ft | 276 kts | 25° |
| 2026-05-05 19:19 | 64.71598 | 25.53596 | 5789 ft | 275 kts | 25° |
| 2026-05-05 19:19 | 64.73209 | 25.55935 | 5477 ft | 273 kts | 25° |
| 2026-05-05 19:20 | 64.74804 | 25.58256 | 5236 ft | 269 kts | 25° |
| 2026-05-05 19:20 | 64.76374 | 25.60547 | 4996 ft | 265 kts | 25° |
| 2026-05-05 19:20 | 64.77923 | 25.62781 | 4759 ft | 261 kts | 24° |
| 2026-05-05 19:20 | 64.79466 | 25.64972 | 4487 ft | 259 kts | 24° |
| 2026-05-05 19:21 | 64.80995 | 25.67142 | 4195 ft | 254 kts | 25° |
| 2026-05-05 19:21 | 64.82475 | 25.69189 | 3878 ft | 244 kts | 18° |
| 2026-05-05 19:21 | 64.84012 | 25.69872 | 3370 ft | 215 kts | 340° |
| 2026-05-05 19:21 | 64.85114 | 25.68157 | 3196 ft | 179 kts | 300° |
| 2026-05-05 19:22 | 64.85549 | 25.65630 | 3092 ft | 157 kts | 290° |
| 2026-05-05 19:22 | 64.85988 | 25.63409 | 2909 ft | 146 kts | 295° |
| 2026-05-05 19:22 | 64.86465 | 25.61309 | 2756 ft | 145 kts | 297° |
| 2026-05-05 19:22 | 64.86961 | 25.59238 | 2440 ft | 144 kts | 298° |
| 2026-05-05 19:23 | 64.87463 | 25.57224 | 2199 ft | 143 kts | 298° |
| 2026-05-05 19:23 | 64.87964 | 25.55228 | 1980 ft | 143 kts | 298° |
| 2026-05-05 19:23 | 64.88467 | 25.53236 | 1752 ft | 142 kts | 299° |
| 2026-05-05 19:23 | 64.88971 | 25.51253 | 1532 ft | 141 kts | 299° |
| 2026-05-05 19:24 | 64.89475 | 25.49276 | 1314 ft | 141 kts | 300° |
| 2026-05-05 19:24 | 64.89977 | 25.47306 | 1093 ft | 140 kts | 300° |
| 2026-05-05 19:24 | 64.90481 | 25.45328 | 874 ft | 140 kts | 300° |
| 2026-05-05 19:24 | 64.90962 | 25.43350 | 680 ft | 140 kts | 301° |
| 2026-05-05 19:25 | 64.91463 | 25.41410 | 515 ft | 140 kts | 301° |
| 2026-05-05 19:25 | 64.91972 | 25.39492 | 289 ft | 138 kts | 302° |
| 2026-05-05 19:25 | 64.92470 | 25.37555 | 64 ft | 137 kts | 300° |
| 2026-05-05 19:25 | 64.92915 | 25.35816 | 51 ft | 103 kts | 301° |
| 2026-05-05 19:26 | 64.93194 | 25.34716 | 52 ft | 53 kts | 302° |
| 2026-05-05 19:26 | 64.93302 | 25.34289 | 52 ft | 18 kts | 301° |
| 2026-05-05 19:26 | 64.93394 | 25.34097 | 52 ft | 17 kts | 335° |
| 2026-05-05 19:26 | 64.93507 | 25.34130 | 51 ft | 17 kts | 50° |
| 2026-05-05 19:27 | 64.93476 | 25.34362 | 51 ft | 15 kts | 120° |
| 2026-05-05 19:27 | 64.93419 | 25.34588 | 50 ft | 16 kts | 121° |
| 2026-05-05 19:27 | 64.93359 | 25.34824 | 49 ft | 17 kts | 120° |
| 2026-05-05 19:27 | 64.93297 | 25.35067 | 49 ft | 17 kts | 121° |
| 2026-05-05 19:28 | 64.93233 | 25.35317 | 49 ft | 17 kts | 120° |
| 2026-05-05 19:28 | 64.93170 | 25.35565 | 50 ft | 17 kts | 120° |
| 2026-05-05 19:28 | 64.93109 | 25.35806 | 51 ft | 16 kts | 120° |
| 2026-05-05 19:28 | 64.93049 | 25.36042 | 51 ft | 17 kts | 121° |
| 2026-05-05 19:29 | 64.92987 | 25.36282 | 51 ft | 17 kts | 121° |
| 2026-05-05 19:29 | 64.92923 | 25.36529 | 51 ft | 17 kts | 120° |
| 2026-05-05 19:29 | 64.92863 | 25.36766 | 51 ft | 16 kts | 121° |
| 2026-05-05 19:29 | 64.92810 | 25.36972 | 50 ft | 13 kts | 121° |
| 2026-05-05 19:30 | 64.92767 | 25.37139 | 50 ft | 10 kts | 121° |
| 2026-05-05 19:30 | 64.92748 | 25.37248 | 49 ft | 5 kts | 78° |
| 2026-05-05 19:30 | 64.92774 | 25.37309 | 49 ft | 4 kts | 32° |
| 2026-05-05 19:30 | 64.92794 | 25.37335 | 49 ft | 1 kts | 28° |
| 2026-05-05 19:31 | 64.92797 | 25.37339 | 49 ft | 0 kts | 29° |